Aberford, United Kingdom
Current Conditions -  °F | °C
As of 9:20 PM on Friday 28 Nov 2014 (Local Time) from EGNM Reporting Station
Light Rain Light Rain  
Wind Chill: 42°   Ceiling: 200
Heat Index: 46°   Visibility: 0.37mi
Dew Point: 46°   Wind: 8mph
Humidity: 100%   Direction: 70°ENE
Pressure: 29.83"   Gusts: NA
Location:  53.83°N, 1.34°W
Report Text: EGNM 282120Z 07007KT 040V110 0600 R32/0750 -RADZ FG SCT001 BKN002 08/08 Q1010
Loading
Personal Weather Stations






























Interactive Weather Map New forecast layout! Learn more

10-Day Weather Forecast

Advertisements
Track Severe Weather on mobile